Terminal Aerodrome Forecast
Issued by NWS

Home | Current Version | Previous Version | Text Only | Print | Product List | Glossary On
Versions: 1 2 3 4 5 6 7 8 9 10 11 12 13 14 15 16 17 18 19 20 21
000
FTUS41 KOKX 220500
TAFSWF
TAF
KSWF 220531Z 2206/2312 VRB03KT P6SM OVC020
      TEMPO 2208/2212 BKN015
     FM221200 VRB04KT P6SM BKN010 OVC020
     FM222100 08004KT 5SM -RA BR BKN008
     FM230400 08004KT 3SM -RA BR OVC005
      AMD NOT SKED=

USA.gov is the U.S. government's official web portal to all federal, state and local government web resources and services.